Ag Nektarios Aiginas — SX7083 — position and weather

sailwx.info

Track history (hours):
 
Tides and Currents Weather Stations Pressure Air Temp Water Temp Dewpoint Dewpoint Depression Visibility Wind Speed Wind Dir Waves Ship Positions

Ag Nektarios Aiginas

Last reported at 2018-Feb-24 18:31 UTC. Time now 2018-Feb-25 00:22 UTC.
Position N 37°57' E 023°39'.

Length 75 m; draft 2.7 m.

Type: Passenger vessel. MMSI: 237021400.

Date/timePositionNaut miles runAvg speedWind from/ knotsBaromVisibWave heightAir tempDewpointWater temp
2018-Feb-24 18:31N 37°57' E 023°39'0 0.8
2018-Feb-24 18:30N 37°57' E 023°39'3 6.0
2018-Feb-24 18:00N 37°55' E 023°36'612.4
2018-Feb-24 17:30N 37°50' E 023°31'612.7
2018-Feb-24 17:00N 37°46' E 023°25'1 2.6
2018-Feb-24 16:30N 37°45' E 023°25'4 8.9
2018-Feb-24 16:00N 37°48' E 023°29'612.8
2018-Feb-24 15:30N 37°53' E 023°34'5 9.9
2018-Feb-24 15:00N 37°57' E 023°38'0 0.0
2018-Feb-24 14:30N 37°57' E 023°39'0 0.0
2018-Feb-24 14:00N 37°57' E 023°39'3 5.5
2018-Feb-24 13:30N 37°55' E 023°36'612.6
2018-Feb-24 13:00N 37°50' E 023°31'612.4
2018-Feb-24 12:30N 37°46' E 023°25'1 2.9
2018-Feb-24 12:00N 37°45' E 023°25'3 5.8
2018-Feb-24 11:30N 37°47' E 023°27'612.3
2018-Feb-24 11:00N 37°51' E 023°33'612.4
2018-Feb-24 10:30N 37°56' E 023°37'1 1.4
2018-Feb-24 10:00N 37°57' E 023°38'611.7
2018-Feb-24 09:30N 37°52' E 023°34'612.6
2018-Feb-24 09:00N 37°48' E 023°28'4 7.2
2018-Feb-24 08:30N 37°45' E 023°25'0 0.3
2018-Feb-24 08:00N 37°45' E 023°25'510.1
2018-Feb-24 07:30N 37°49' E 023°29'612.5
2018-Feb-24 07:00N 37°53' E 023°35'5 9.3
2018-Feb-24 06:30N 37°57' E 023°39'0 0.0
2018-Feb-24 06:00N 37°57' E 023°39'0 0.0
2018-Feb-24 05:30N 37°57' E 023°39'0 0.0
2018-Feb-23 18:08N 37°57' E 023°39'0 0.0
2018-Feb-23 18:00N 37°57' E 023°39'2 4.7
2018-Feb-23 17:30N 37°55' E 023°36'612.7
2018-Feb-23 17:00N 37°50' E 023°31'612.8
2018-Feb-23 16:30N 37°46' E 023°25'1 2.0
2018-Feb-23 15:47N 37°45' E 023°25'2 5.7
2018-Feb-23 15:30N 37°46' E 023°25'612.6
2018-Feb-23 15:00N 37°50' E 023°31'612.5
2018-Feb-23 14:30N 37°55' E 023°36'2 4.5
2018-Feb-23 14:00N 37°57' E 023°39'2 3.9
2018-Feb-23 13:30N 37°56' E 023°36'612.9
2018-Feb-23 13:00N 37°50' E 023°32'613.0
2018-Feb-23 12:30N 37°46' E 023°25'2 3.1
2018-Feb-23 11:58N 37°45' E 023°25'2 3.8
2018-Feb-23 11:30N 37°46' E 023°25'612.5
2018-Feb-23 11:00N 37°50' E 023°32'612.8
2018-Feb-23 10:30N 37°56' E 023°36'2 4.0
2018-Feb-23 10:00N 37°57' E 023°39'3 5.1
2018-Feb-23 09:30N 37°55' E 023°36'612.6
2018-Feb-23 09:00N 37°50' E 023°31'612.6
2018-Feb-23 08:30N 37°46' E 023°25'2 3.0
2018-Feb-23 08:00N 37°45' E 023°25'3 6.2
2018-Feb-23 07:30N 37°48' E 023°27'612.7
2018-Feb-23 07:00N 37°52' E 023°33'612.3
2018-Feb-23 06:30N 37°56' E 023°38'1 1.1
2018-Feb-23 06:00N 37°57' E 023°39'0 0.0
2018-Feb-23 05:30N 37°57' E 023°39'0 0.0
2018-Feb-22 19:20N 37°57' E 023°39'0 0.1
2018-Feb-22 19:00N 37°57' E 023°38'510.9
2018-Feb-22 18:30N 37°53' E 023°34'612.7
2018-Feb-22 18:00N 37°48' E 023°28'4 7.9
2018-Feb-22 17:30N 37°45' E 023°25'0 0.2
2018-Feb-22 17:00N 37°45' E 023°25'5 9.9
2018-Feb-22 16:30N 37°49' E 023°29'612.7
2018-Feb-22 16:00N 37°54' E 023°34'5 9.4
2018-Feb-22 15:30N 37°57' E 023°39'0 0.0
2018-Feb-22 15:00N 37°57' E 023°39'0 0.0
2018-Feb-22 14:30N 37°57' E 023°39'0 0.0
2018-Feb-22 14:00N 37°57' E 023°39'0 0.0
2018-Feb-22 13:30N 37°57' E 023°39'0 0.0
2018-Feb-22 13:00N 37°57' E 023°39'0 0.0
2018-Feb-22 12:30N 37°57' E 023°39'0 0.0
2018-Feb-22 12:00N 37°57' E 023°39'0 0.0
2018-Feb-22 11:30N 37°57' E 023°39'1 1.3
2018-Feb-22 11:00N 37°56' E 023°38'612.3
2018-Feb-22 10:30N 37°52' E 023°33'612.5
2018-Feb-22 10:00N 37°47' E 023°27'3 5.8
2018-Feb-22 09:30N 37°45' E 023°25'0 0.1
2018-Feb-22 09:00N 37°45' E 023°25'4 8.7
2018-Feb-22 08:30N 37°48' E 023°28'612.4
2018-Feb-22 08:00N 37°53' E 023°34'510.8
2018-Feb-22 07:30N 37°57' E 023°39'0 0.0
2018-Feb-22 07:00N 37°57' E 023°39'0 0.0
2018-Feb-22 06:30N 37°57' E 023°39'0 0.0
2018-Feb-21 19:22N 37°57' E 023°39'0 0.1
2018-Feb-21 19:00N 37°57' E 023°38'611.1
2018-Feb-21 18:30N 37°52' E 023°34'612.7
2018-Feb-21 18:01N 37°48' E 023°28'4 7.8
2018-Feb-21 17:30N 37°45' E 023°25'0 0.4
2018-Feb-21 17:00N 37°45' E 023°25'510.6
2018-Feb-21 16:31N 37°49' E 023°29'612.8
2018-Feb-21 16:00N 37°54' E 023°34'4 8.9
2018-Feb-21 15:30N 37°57' E 023°39'0 0.0
2018-Feb-21 15:00N 37°57' E 023°39'0 0.0
2018-Feb-21 14:30N 37°57' E 023°39'0 0.0
2018-Feb-21 14:00N 37°57' E 023°39'0 0.0
2018-Feb-21 13:30N 37°57' E 023°39'0 0.0
2018-Feb-21 13:01N 37°57' E 023°39'0 0.0
2018-Feb-21 12:30N 37°57' E 023°39'0 0.0
2018-Feb-21 12:00N 37°57' E 023°39'0 0.0
2018-Feb-21 11:31N 37°57' E 023°39'0 0.1
2018-Feb-21 11:01N 37°57' E 023°38'611.5
2018-Feb-21 10:31N 37°52' E 023°33'612.7
2018-Feb-21 10:01N 37°48' E 023°28'4 7.4
2018-Feb-21 09:30N 37°45' E 023°25'0 0.1
2018-Feb-21 09:01N 37°45' E 023°25'4 8.9
2018-Feb-21 08:30N 37°48' E 023°29'612.6
2018-Feb-21 08:01N 37°53' E 023°34'510.1
2018-Feb-21 07:31N 37°57' E 023°39'0 0.0
2018-Feb-21 07:00N 37°57' E 023°39'0 0.0
2018-Feb-21 06:31N 37°57' E 023°39'0 0.0
2018-Feb-20 19:33N 37°57' E 023°39'0 0.0
2018-Feb-20 19:31N 37°57' E 023°39'1 2.8
2018-Feb-20 19:01N 37°56' E 023°37'5 9.9
2018-Feb-20 18:31N 37°52' E 023°33'612.6
2018-Feb-20 18:00N 37°48' E 023°27'3 4.0
2018-Feb-20 17:09N 37°45' E 023°25'0 0.0
2018-Feb-20 17:00N 37°45' E 023°25'4 7.9
2018-Feb-20 16:30N 37°48' E 023°28'612.8
2018-Feb-20 16:01N 37°53' E 023°34'611.1
2018-Feb-20 15:31N 37°57' E 023°38'0 0.0
2018-Feb-20 15:01N 37°57' E 023°38'0 0.0
2018-Feb-20 14:31N 37°57' E 023°38'0 0.0
2018-Feb-20 14:01N 37°57' E 023°38'0 0.0
2018-Feb-20 13:31N 37°57' E 023°38'0 0.0
2018-Feb-20 13:01N 37°57' E 023°38'0 0.0
2018-Feb-20 12:31N 37°57' E 023°38'0 0.0
2018-Feb-20 12:01N 37°57' E 023°38'0 0.0
2018-Feb-20 11:30N 37°57' E 023°38'1 2.7
2018-Feb-20 11:01N 37°56' E 023°37'612.5
2018-Feb-20 10:30N 37°51' E 023°32'612.5
2018-Feb-20 10:00N 37°47' E 023°26'2 4.5
2018-Feb-20 09:30N 37°45' E 023°26'0 0.1
2018-Feb-20 09:01N 37°45' E 023°25'4 8.9
2018-Feb-20 08:31N 37°48' E 023°29'612.8
2018-Feb-20 08:00N 37°53' E 023°34'5 9.8
2018-Feb-20 07:31N 37°57' E 023°39'0 0.0
2018-Feb-20 07:01N 37°57' E 023°39'0 0.0
2018-Feb-19 21:24N 37°57' E 023°39'0 0.9
2018-Feb-19 21:00N 37°57' E 023°38'611.9
2018-Feb-19 20:30N 37°52' E 023°33'612.4
2018-Feb-19 20:01N 37°48' E 023°28'3 6.5
2018-Feb-19 19:29N 37°45' E 023°25'0 0.0
2018-Feb-19 19:00N 37°45' E 023°26'2 3.1
2018-Feb-19 18:30N 37°46' E 023°25'612.8
2018-Feb-19 18:01N 37°51' E 023°31'612.9
2018-Feb-19 17:31N 37°55' E 023°36'2 4.0
2018-Feb-19 17:01N 37°57' E 023°38'611.1
2018-Feb-19 16:31N 37°53' E 023°34'612.3
2018-Feb-19 16:00N 37°48' E 023°28'4 8.0
2018-Feb-19 15:30N 37°45' E 023°25'0 0.0
2018-Feb-19 15:00N 37°45' E 023°26'4 8.2
2018-Feb-19 14:31N 37°48' E 023°28'612.8
2018-Feb-19 14:01N 37°53' E 023°34'510.7
2018-Feb-19 13:31N 37°57' E 023°39'0 0.1
2018-Feb-19 13:00N 37°57' E 023°38'511.0
2018-Feb-19 12:31N 37°52' E 023°34'612.8
2018-Feb-19 12:01N 37°48' E 023°28'4 7.5
2018-Feb-19 11:30N 37°45' E 023°26'0 0.1
2018-Feb-19 11:00N 37°45' E 023°25'4 8.5
2018-Feb-19 10:30N 37°48' E 023°28'612.7
2018-Feb-19 10:01N 37°53' E 023°34'510.5
2018-Feb-19 09:31N 37°57' E 023°39'0 0.0
2018-Feb-19 09:00N 37°57' E 023°39'0 0.0
2018-Feb-18 18:12N 37°57' E 023°39'0 0.1
2018-Feb-18 18:00N 37°57' E 023°39'4 7.7
2018-Feb-18 17:30N 37°54' E 023°35'611.2
2018-Feb-18 17:00N 37°50' E 023°30'611.8
2018-Feb-18 16:31N 37°46' E 023°25'1 2.6
2018-Feb-18 16:00N 37°45' E 023°25'2 3.3
2018-Feb-18 15:30N 37°46' E 023°25'612.8
2018-Feb-18 15:00N 37°50' E 023°32'612.9
2018-Feb-18 14:31N 37°56' E 023°37'2 3.8
2018-Feb-18 14:00N 37°57' E 023°39'2 4.3
2018-Feb-18 13:30N 37°55' E 023°36'613.0
2018-Feb-18 13:00N 37°50' E 023°31'612.8
2018-Feb-18 12:30N 37°46' E 023°25'1 2.8
2018-Feb-18 12:00N 37°45' E 023°26'2 4.3
2018-Feb-18 11:30N 37°47' E 023°26'612.4
2018-Feb-18 11:00N 37°51' E 023°32'612.3
2018-Feb-18 10:30N 37°56' E 023°37'2 3.3
2018-Feb-18 09:59N 37°57' E 023°39'1 2.7
2018-Feb-18 09:30N 37°56' E 023°37'611.8
2018-Feb-18 09:00N 37°51' E 023°33'612.5
2018-Feb-18 08:30N 37°47' E 023°27'3 5.4
2018-Feb-18 08:00N 37°45' E 023°26'3 5.1
2018-Feb-18 07:30N 37°47' E 023°27'612.5
2018-Feb-18 07:00N 37°51' E 023°32'612.5
2018-Feb-18 06:30N 37°56' E 023°37'1 1.9
2018-Feb-18 06:00N 37°57' E 023°39'0 0.0
2018-Feb-18 05:30N 37°57' E 023°39'0 0.0
2018-Feb-17 18:02N 37°57' E 023°39'0 0.0
2018-Feb-17 18:00N 37°57' E 023°39'3 6.0
2018-Feb-17 17:30N 37°55' E 023°36'612.3
2018-Feb-17 17:00N 37°50' E 023°31'612.2
2018-Feb-17 16:30N 37°46' E 023°25'1 2.6
2018-Feb-17 16:00N 37°45' E 023°25'2 3.9
2018-Feb-17 15:30N 37°47' E 023°26'612.8
2018-Feb-17 15:00N 37°51' E 023°32'612.8
2018-Feb-17 14:30N 37°56' E 023°37'2 3.1
2018-Feb-17 14:00N 37°57' E 023°39'3 6.5
2018-Feb-17 13:30N 37°54' E 023°36'612.1
2018-Feb-17 13:00N 37°50' E 023°31'612.2
2018-Feb-17 12:30N 37°46' E 023°25'1 2.3
2018-Feb-17 11:59N 37°45' E 023°26'2 4.0
2018-Feb-17 11:30N 37°47' E 023°26'612.6
2018-Feb-17 11:00N 37°51' E 023°32'612.7
2018-Feb-17 10:30N 37°56' E 023°37'2 3.3
2018-Feb-17 10:00N 37°57' E 023°39'2 3.6
2018-Feb-17 09:30N 37°56' E 023°37'612.1
2018-Feb-17 09:00N 37°51' E 023°32'612.3
2018-Feb-17 08:31N 37°47' E 023°26'2 4.3
2018-Feb-17 08:00N 37°45' E 023°26'3 6.3
2018-Feb-17 07:30N 37°48' E 023°27'612.4
2018-Feb-17 07:00N 37°52' E 023°33'612.1
2018-Feb-17 06:30N 37°56' E 023°38'1 1.1
2018-Feb-17 06:00N 37°57' E 023°39'0 0.0
2018-Feb-16 18:39N 37°57' E 023°39'0 0.1
2018-Feb-16 18:31N 37°57' E 023°39'3 5.9
2018-Feb-16 18:01N 37°55' E 023°36'611.8
2018-Feb-16 17:31N 37°50' E 023°31'612.1
2018-Feb-16 17:01N 37°46' E 023°25'2 3.3
2018-Feb-16 16:30N 37°45' E 023°25'3 5.7
2018-Feb-16 16:01N 37°47' E 023°27'612.6
2018-Feb-16 15:31N 37°52' E 023°33'612.4
2018-Feb-16 15:01N 37°56' E 023°38'1 1.3
2018-Feb-16 14:30N 37°57' E 023°39'2 4.0
2018-Feb-16 14:01N 37°56' E 023°36'511.0
2018-Feb-16 13:31N 37°51' E 023°33'611.8
2018-Feb-16 13:00N 37°47' E 023°27'3 4.7
2018-Feb-16 12:25N 37°45' E 023°25'1 2.9
2018-Feb-16 12:01N 37°46' E 023°25'612.3
2018-Feb-16 11:30N 37°49' E 023°31'612.5
2018-Feb-16 11:01N 37°55' E 023°36'3 6.2
2018-Feb-16 10:31N 37°57' E 023°39'0 0.0
2018-Feb-16 10:00N 37°57' E 023°39'4 7.5
2018-Feb-16 09:31N 37°54' E 023°35'611.5
2018-Feb-16 09:01N 37°49' E 023°31'611.8
2018-Feb-16 08:30N 37°46' E 023°25'1 2.5
2018-Feb-16 08:00N 37°45' E 023°25'3 6.2
2018-Feb-16 07:31N 37°47' E 023°27'612.4
2018-Feb-16 07:01N 37°52' E 023°33'612.1
2018-Feb-16 06:31N 37°56' E 023°38'1 1.3
2018-Feb-16 06:00N 37°57' E 023°39'0 0.0
2018-Feb-15 19:36N 37°57' E 023°39'0 0.1
2018-Feb-15 19:30N 37°57' E 023°39'2 4.7
2018-Feb-15 19:00N 37°55' E 023°36'611.4
2018-Feb-15 18:30N 37°50' E 023°32'611.7
2018-Feb-15 18:00N 37°47' E 023°26'2 4.4
2018-Feb-15 17:30N 37°45' E 023°25'1 1.4
2018-Feb-15 16:59N 37°45' E 023°25'611.7
2018-Feb-15 16:30N 37°49' E 023°30'612.2
2018-Feb-15 16:00N 37°54' E 023°35'4 8.3
2018-Feb-15 15:30N 37°57' E 023°39'0 0.0
2018-Feb-15 15:00N 37°57' E 023°39'0 0.0
2018-Feb-15 14:30N 37°57' E 023°39'0 0.0
2018-Feb-15 13:59N 37°57' E 023°39'0 0.0
2018-Feb-15 13:30N 37°57' E 023°39'0 0.0
2018-Feb-15 13:00N 37°57' E 023°39'0 0.0
2018-Feb-15 12:30N 37°57' E 023°39'0 0.0
2018-Feb-15 12:00N 37°57' E 023°39'0 0.0
2018-Feb-15 11:30N 37°57' E 023°39'1 1.7
2018-Feb-15 11:00N 37°56' E 023°38'612.0
2018-Feb-15 10:30N 37°51' E 023°34'611.7
2018-Feb-15 10:00N 37°48' E 023°28'4 7.3
2018-Feb-15 09:30N 37°45' E 023°25'0 0.9
2018-Feb-15 09:00N 37°45' E 023°25'511.0
2018-Feb-15 08:30N 37°48' E 023°30'612.3
2018-Feb-15 08:00N 37°54' E 023°34'5 9.0
2018-Feb-15 07:30N 37°57' E 023°39'0 0.0
2018-Feb-15 07:00N 37°57' E 023°39'  
Track history (hours):
 
Tides and Currents Weather Stations Pressure Air Temp Water Temp Dewpoint Dewpoint Depression Visibility Wind Speed Wind Dir Waves Ship Positions

Ag Nektarios Aiginas

Last reported at 2018-Feb-24 18:31 UTC. Time now 2018-Feb-25 00:22 UTC.
Position N 37°57' E 023°39'.

Length 75 m; draft 2.7 m.

Type: Passenger vessel. MMSI: 237021400.

Date/timePositionNaut miles runAvg speedWind from/ knotsBaromVisibWave heightAir tempDewpointWater temp
2018-Feb-24 18:31N 37°57' E 023°39'0 0.8
2018-Feb-24 18:30N 37°57' E 023°39'3 6.0
2018-Feb-24 18:00N 37°55' E 023°36'612.4
2018-Feb-24 17:30N 37°50' E 023°31'612.7
2018-Feb-24 17:00N 37°46' E 023°25'1 2.6
2018-Feb-24 16:30N 37°45' E 023°25'4 8.9
2018-Feb-24 16:00N 37°48' E 023°29'612.8
2018-Feb-24 15:30N 37°53' E 023°34'5 9.9
2018-Feb-24 15:00N 37°57' E 023°38'0 0.0
2018-Feb-24 14:30N 37°57' E 023°39'0 0.0
2018-Feb-24 14:00N 37°57' E 023°39'3 5.5
2018-Feb-24 13:30N 37°55' E 023°36'612.6
2018-Feb-24 13:00N 37°50' E 023°31'612.4
2018-Feb-24 12:30N 37°46' E 023°25'1 2.9
2018-Feb-24 12:00N 37°45' E 023°25'3 5.8
2018-Feb-24 11:30N 37°47' E 023°27'612.3
2018-Feb-24 11:00N 37°51' E 023°33'612.4
2018-Feb-24 10:30N 37°56' E 023°37'1 1.4
2018-Feb-24 10:00N 37°57' E 023°38'611.7
2018-Feb-24 09:30N 37°52' E 023°34'612.6
2018-Feb-24 09:00N 37°48' E 023°28'4 7.2
2018-Feb-24 08:30N 37°45' E 023°25'0 0.3
2018-Feb-24 08:00N 37°45' E 023°25'510.1
2018-Feb-24 07:30N 37°49' E 023°29'612.5
2018-Feb-24 07:00N 37°53' E 023°35'5 9.3
2018-Feb-24 06:30N 37°57' E 023°39'0 0.0
2018-Feb-24 06:00N 37°57' E 023°39'0 0.0
2018-Feb-24 05:30N 37°57' E 023°39'0 0.0
2018-Feb-23 18:08N 37°57' E 023°39'0 0.0
2018-Feb-23 18:00N 37°57' E 023°39'2 4.7
2018-Feb-23 17:30N 37°55' E 023°36'612.7
2018-Feb-23 17:00N 37°50' E 023°31'612.8
2018-Feb-23 16:30N 37°46' E 023°25'1 2.0
2018-Feb-23 15:47N 37°45' E 023°25'2 5.7
2018-Feb-23 15:30N 37°46' E 023°25'612.6
2018-Feb-23 15:00N 37°50' E 023°31'612.5
2018-Feb-23 14:30N 37°55' E 023°36'2 4.5
2018-Feb-23 14:00N 37°57' E 023°39'2 3.9
2018-Feb-23 13:30N 37°56' E 023°36'612.9
2018-Feb-23 13:00N 37°50' E 023°32'613.0
2018-Feb-23 12:30N 37°46' E 023°25'2 3.1
2018-Feb-23 11:58N 37°45' E 023°25'2 3.8
2018-Feb-23 11:30N 37°46' E 023°25'612.5
2018-Feb-23 11:00N 37°50' E 023°32'612.8
2018-Feb-23 10:30N 37°56' E 023°36'2 4.0
2018-Feb-23 10:00N 37°57' E 023°39'3 5.1
2018-Feb-23 09:30N 37°55' E 023°36'612.6
2018-Feb-23 09:00N 37°50' E 023°31'612.6
2018-Feb-23 08:30N 37°46' E 023°25'2 3.0
2018-Feb-23 08:00N 37°45' E 023°25'3 6.2
2018-Feb-23 07:30N 37°48' E 023°27'612.7
2018-Feb-23 07:00N 37°52' E 023°33'612.3
2018-Feb-23 06:30N 37°56' E 023°38'1 1.1
2018-Feb-23 06:00N 37°57' E 023°39'0 0.0
2018-Feb-23 05:30N 37°57' E 023°39'0 0.0
2018-Feb-22 19:20N 37°57' E 023°39'0 0.1
2018-Feb-22 19:00N 37°57' E 023°38'510.9
2018-Feb-22 18:30N 37°53' E 023°34'612.7
2018-Feb-22 18:00N 37°48' E 023°28'4 7.9
2018-Feb-22 17:30N 37°45' E 023°25'0 0.2
2018-Feb-22 17:00N 37°45' E 023°25'5 9.9
2018-Feb-22 16:30N 37°49' E 023°29'612.7
2018-Feb-22 16:00N 37°54' E 023°34'5 9.4
2018-Feb-22 15:30N 37°57' E 023°39'0 0.0
2018-Feb-22 15:00N 37°57' E 023°39'0 0.0
2018-Feb-22 14:30N 37°57' E 023°39'0 0.0
2018-Feb-22 14:00N 37°57' E 023°39'0 0.0
2018-Feb-22 13:30N 37°57' E 023°39'0 0.0
2018-Feb-22 13:00N 37°57' E 023°39'0 0.0
2018-Feb-22 12:30N 37°57' E 023°39'0 0.0
2018-Feb-22 12:00N 37°57' E 023°39'0 0.0
2018-Feb-22 11:30N 37°57' E 023°39'1 1.3
2018-Feb-22 11:00N 37°56' E 023°38'612.3
2018-Feb-22 10:30N 37°52' E 023°33'612.5
2018-Feb-22 10:00N 37°47' E 023°27'3 5.8
2018-Feb-22 09:30N 37°45' E 023°25'0 0.1
2018-Feb-22 09:00N 37°45' E 023°25'4 8.7
2018-Feb-22 08:30N 37°48' E 023°28'612.4
2018-Feb-22 08:00N 37°53' E 023°34'510.8
2018-Feb-22 07:30N 37°57' E 023°39'0 0.0
2018-Feb-22 07:00N 37°57' E 023°39'0 0.0
2018-Feb-22 06:30N 37°57' E 023°39'0 0.0
2018-Feb-21 19:22N 37°57' E 023°39'0 0.1
2018-Feb-21 19:00N 37°57' E 023°38'611.1
2018-Feb-21 18:30N 37°52' E 023°34'612.7
2018-Feb-21 18:01N 37°48' E 023°28'4 7.8
2018-Feb-21 17:30N 37°45' E 023°25'0 0.4
2018-Feb-21 17:00N 37°45' E 023°25'510.6
2018-Feb-21 16:31N 37°49' E 023°29'612.8
2018-Feb-21 16:00N 37°54' E 023°34'4 8.9
2018-Feb-21 15:30N 37°57' E 023°39'0 0.0
2018-Feb-21 15:00N 37°57' E 023°39'0 0.0
2018-Feb-21 14:30N 37°57' E 023°39'0 0.0
2018-Feb-21 14:00N 37°57' E 023°39'0 0.0
2018-Feb-21 13:30N 37°57' E 023°39'0 0.0
2018-Feb-21 13:01N 37°57' E 023°39'0 0.0
2018-Feb-21 12:30N 37°57' E 023°39'0 0.0
2018-Feb-21 12:00N 37°57' E 023°39'0 0.0
2018-Feb-21 11:31N 37°57' E 023°39'0 0.1
2018-Feb-21 11:01N 37°57' E 023°38'611.5
2018-Feb-21 10:31N 37°52' E 023°33'612.7
2018-Feb-21 10:01N 37°48' E 023°28'4 7.4
2018-Feb-21 09:30N 37°45' E 023°25'0 0.1
2018-Feb-21 09:01N 37°45' E 023°25'4 8.9
2018-Feb-21 08:30N 37°48' E 023°29'612.6
2018-Feb-21 08:01N 37°53' E 023°34'510.1
2018-Feb-21 07:31N 37°57' E 023°39'0 0.0
2018-Feb-21 07:00N 37°57' E 023°39'0 0.0
2018-Feb-21 06:31N 37°57' E 023°39'0 0.0
2018-Feb-20 19:33N 37°57' E 023°39'0 0.0
2018-Feb-20 19:31N 37°57' E 023°39'1 2.8
2018-Feb-20 19:01N 37°56' E 023°37'5 9.9
2018-Feb-20 18:31N 37°52' E 023°33'612.6
2018-Feb-20 18:00N 37°48' E 023°27'3 4.0
2018-Feb-20 17:09N 37°45' E 023°25'0 0.0
2018-Feb-20 17:00N 37°45' E 023°25'4 7.9
2018-Feb-20 16:30N 37°48' E 023°28'612.8
2018-Feb-20 16:01N 37°53' E 023°34'611.1
2018-Feb-20 15:31N 37°57' E 023°38'0 0.0
2018-Feb-20 15:01N 37°57' E 023°38'0 0.0
2018-Feb-20 14:31N 37°57' E 023°38'0 0.0
2018-Feb-20 14:01N 37°57' E 023°38'0 0.0
2018-Feb-20 13:31N 37°57' E 023°38'0 0.0
2018-Feb-20 13:01N 37°57' E 023°38'0 0.0
2018-Feb-20 12:31N 37°57' E 023°38'0 0.0
2018-Feb-20 12:01N 37°57' E 023°38'0 0.0
2018-Feb-20 11:30N 37°57' E 023°38'1 2.7
2018-Feb-20 11:01N 37°56' E 023°37'612.5
2018-Feb-20 10:30N 37°51' E 023°32'612.5
2018-Feb-20 10:00N 37°47' E 023°26'2 4.5
2018-Feb-20 09:30N 37°45' E 023°26'0 0.1
2018-Feb-20 09:01N 37°45' E 023°25'4 8.9
2018-Feb-20 08:31N 37°48' E 023°29'612.8
2018-Feb-20 08:00N 37°53' E 023°34'5 9.8
2018-Feb-20 07:31N 37°57' E 023°39'0 0.0
2018-Feb-20 07:01N 37°57' E 023°39'0 0.0
2018-Feb-19 21:24N 37°57' E 023°39'0 0.9
2018-Feb-19 21:00N 37°57' E 023°38'611.9
2018-Feb-19 20:30N 37°52' E 023°33'612.4
2018-Feb-19 20:01N 37°48' E 023°28'3 6.5
2018-Feb-19 19:29N 37°45' E 023°25'0 0.0
2018-Feb-19 19:00N 37°45' E 023°26'2 3.1
2018-Feb-19 18:30N 37°46' E 023°25'612.8
2018-Feb-19 18:01N 37°51' E 023°31'612.9
2018-Feb-19 17:31N 37°55' E 023°36'2 4.0
2018-Feb-19 17:01N 37°57' E 023°38'611.1
2018-Feb-19 16:31N 37°53' E 023°34'612.3
2018-Feb-19 16:00N 37°48' E 023°28'4 8.0
2018-Feb-19 15:30N 37°45' E 023°25'0 0.0
2018-Feb-19 15:00N 37°45' E 023°26'4 8.2
2018-Feb-19 14:31N 37°48' E 023°28'612.8
2018-Feb-19 14:01N 37°53' E 023°34'510.7
2018-Feb-19 13:31N 37°57' E 023°39'0 0.1
2018-Feb-19 13:00N 37°57' E 023°38'511.0
2018-Feb-19 12:31N 37°52' E 023°34'612.8
2018-Feb-19 12:01N 37°48' E 023°28'4 7.5
2018-Feb-19 11:30N 37°45' E 023°26'0 0.1
2018-Feb-19 11:00N 37°45' E 023°25'4 8.5
2018-Feb-19 10:30N 37°48' E 023°28'612.7
2018-Feb-19 10:01N 37°53' E 023°34'510.5
2018-Feb-19 09:31N 37°57' E 023°39'0 0.0
2018-Feb-19 09:00N 37°57' E 023°39'0 0.0
2018-Feb-18 18:12N 37°57' E 023°39'0 0.1
2018-Feb-18 18:00N 37°57' E 023°39'4 7.7
2018-Feb-18 17:30N 37°54' E 023°35'611.2
2018-Feb-18 17:00N 37°50' E 023°30'611.8
2018-Feb-18 16:31N 37°46' E 023°25'1 2.6
2018-Feb-18 16:00N 37°45' E 023°25'2 3.3
2018-Feb-18 15:30N 37°46' E 023°25'612.8
2018-Feb-18 15:00N 37°50' E 023°32'612.9
2018-Feb-18 14:31N 37°56' E 023°37'2 3.8
2018-Feb-18 14:00N 37°57' E 023°39'2 4.3
2018-Feb-18 13:30N 37°55' E 023°36'613.0
2018-Feb-18 13:00N 37°50' E 023°31'612.8
2018-Feb-18 12:30N 37°46' E 023°25'1 2.8
2018-Feb-18 12:00N 37°45' E 023°26'2 4.3
2018-Feb-18 11:30N 37°47' E 023°26'612.4
2018-Feb-18 11:00N 37°51' E 023°32'612.3
2018-Feb-18 10:30N 37°56' E 023°37'2 3.3
2018-Feb-18 09:59N 37°57' E 023°39'1 2.7
2018-Feb-18 09:30N 37°56' E 023°37'611.8
2018-Feb-18 09:00N 37°51' E 023°33'612.5
2018-Feb-18 08:30N 37°47' E 023°27'3 5.4
2018-Feb-18 08:00N 37°45' E 023°26'3 5.1
2018-Feb-18 07:30N 37°47' E 023°27'612.5
2018-Feb-18 07:00N 37°51' E 023°32'612.5
2018-Feb-18 06:30N 37°56' E 023°37'1 1.9
2018-Feb-18 06:00N 37°57' E 023°39'0 0.0
2018-Feb-18 05:30N 37°57' E 023°39'0 0.0
2018-Feb-17 18:02N 37°57' E 023°39'0 0.0
2018-Feb-17 18:00N 37°57' E 023°39'3 6.0
2018-Feb-17 17:30N 37°55' E 023°36'612.3
2018-Feb-17 17:00N 37°50' E 023°31'612.2
2018-Feb-17 16:30N 37°46' E 023°25'1 2.6
2018-Feb-17 16:00N 37°45' E 023°25'2 3.9
2018-Feb-17 15:30N 37°47' E 023°26'612.8
2018-Feb-17 15:00N 37°51' E 023°32'612.8
2018-Feb-17 14:30N 37°56' E 023°37'2 3.1
2018-Feb-17 14:00N 37°57' E 023°39'3 6.5
2018-Feb-17 13:30N 37°54' E 023°36'612.1
2018-Feb-17 13:00N 37°50' E 023°31'612.2
2018-Feb-17 12:30N 37°46' E 023°25'1 2.3
2018-Feb-17 11:59N 37°45' E 023°26'2 4.0
2018-Feb-17 11:30N 37°47' E 023°26'612.6
2018-Feb-17 11:00N 37°51' E 023°32'612.7
2018-Feb-17 10:30N 37°56' E 023°37'2 3.3
2018-Feb-17 10:00N 37°57' E 023°39'2 3.6
2018-Feb-17 09:30N 37°56' E 023°37'612.1
2018-Feb-17 09:00N 37°51' E 023°32'612.3
2018-Feb-17 08:31N 37°47' E 023°26'2 4.3
2018-Feb-17 08:00N 37°45' E 023°26'3 6.3
2018-Feb-17 07:30N 37°48' E 023°27'612.4
2018-Feb-17 07:00N 37°52' E 023°33'612.1
2018-Feb-17 06:30N 37°56' E 023°38'1 1.1
2018-Feb-17 06:00N 37°57' E 023°39'0 0.0
2018-Feb-16 18:39N 37°57' E 023°39'0 0.1
2018-Feb-16 18:31N 37°57' E 023°39'3 5.9
2018-Feb-16 18:01N 37°55' E 023°36'611.8
2018-Feb-16 17:31N 37°50' E 023°31'612.1
2018-Feb-16 17:01N 37°46' E 023°25'2 3.3
2018-Feb-16 16:30N 37°45' E 023°25'3 5.7
2018-Feb-16 16:01N 37°47' E 023°27'612.6
2018-Feb-16 15:31N 37°52' E 023°33'612.4
2018-Feb-16 15:01N 37°56' E 023°38'1 1.3
2018-Feb-16 14:30N 37°57' E 023°39'2 4.0
2018-Feb-16 14:01N 37°56' E 023°36'511.0
2018-Feb-16 13:31N 37°51' E 023°33'611.8
2018-Feb-16 13:00N 37°47' E 023°27'3 4.7
2018-Feb-16 12:25N 37°45' E 023°25'1 2.9
2018-Feb-16 12:01N 37°46' E 023°25'612.3
2018-Feb-16 11:30N 37°49' E 023°31'612.5
2018-Feb-16 11:01N 37°55' E 023°36'3 6.2
2018-Feb-16 10:31N 37°57' E 023°39'0 0.0
2018-Feb-16 10:00N 37°57' E 023°39'4 7.5
2018-Feb-16 09:31N 37°54' E 023°35'611.5
2018-Feb-16 09:01N 37°49' E 023°31'611.8
2018-Feb-16 08:30N 37°46' E 023°25'1 2.5
2018-Feb-16 08:00N 37°45' E 023°25'3 6.2
2018-Feb-16 07:31N 37°47' E 023°27'612.4
2018-Feb-16 07:01N 37°52' E 023°33'612.1
2018-Feb-16 06:31N 37°56' E 023°38'1 1.3
2018-Feb-16 06:00N 37°57' E 023°39'0 0.0
2018-Feb-15 19:36N 37°57' E 023°39'0 0.1
2018-Feb-15 19:30N 37°57' E 023°39'2 4.7
2018-Feb-15 19:00N 37°55' E 023°36'611.4
2018-Feb-15 18:30N 37°50' E 023°32'611.7
2018-Feb-15 18:00N 37°47' E 023°26'2 4.4
2018-Feb-15 17:30N 37°45' E 023°25'1 1.4
2018-Feb-15 16:59N 37°45' E 023°25'611.7
2018-Feb-15 16:30N 37°49' E 023°30'612.2
2018-Feb-15 16:00N 37°54' E 023°35'4 8.3
2018-Feb-15 15:30N 37°57' E 023°39'0 0.0
2018-Feb-15 15:00N 37°57' E 023°39'0 0.0
2018-Feb-15 14:30N 37°57' E 023°39'0 0.0
2018-Feb-15 13:59N 37°57' E 023°39'0 0.0
2018-Feb-15 13:30N 37°57' E 023°39'0 0.0
2018-Feb-15 13:00N 37°57' E 023°39'0 0.0
2018-Feb-15 12:30N 37°57' E 023°39'0 0.0
2018-Feb-15 12:00N 37°57' E 023°39'0 0.0
2018-Feb-15 11:30N 37°57' E 023°39'1 1.7
2018-Feb-15 11:00N 37°56' E 023°38'612.0
2018-Feb-15 10:30N 37°51' E 023°34'611.7
2018-Feb-15 10:00N 37°48' E 023°28'4 7.3
2018-Feb-15 09:30N 37°45' E 023°25'0 0.9
2018-Feb-15 09:00N 37°45' E 023°25'511.0
2018-Feb-15 08:30N 37°48' E 023°30'612.3
2018-Feb-15 08:00N 37°54' E 023°34'5 9.0
2018-Feb-15 07:30N 37°57' E 023°39'0 0.0
2018-Feb-15 07:00N 37°57' E 023°39'  

Dump ship's entire track history